Time;durP1;ratioP1;P1;durP2;ratioP2;P2;SDS_P1;SDS_P2;PMS_P1;PMS_P2;Temp;Humidity;BMP_temperature;BMP_pressure;BME280_temperature;BME280_humidity;BME280_pressure;Samples;Min_cycle;Max_cycle;Signal;HPM_P1;HPM_P2
2023/10/01 00:02:20;;;;;;;25.00;6.90;;;;;;;15.30;50.38;99742.39;67881;1276;1016223;-66
2023/10/01 00:05:24;;;;;;;23.00;6.50;;;;;;;15.18;50.45;99739.99;67889;1276;1016127;-66
2023/10/01 00:08:26;;;;;;;23.10;7.10;;;;;;;15.19;50.35;99739.92;67867;1276;1017058;-65
2023/10/01 00:11:29;;;;;;;23.80;6.80;;;;;;;15.05;50.45;99743.97;67858;1276;1016323;-65
2023/10/01 00:14:31;;;;;;;29.70;7.00;;;;;;;15.07;50.81;99742.64;67904;1276;1016361;-65
2023/10/01 00:17:34;;;;;;;23.20;7.00;;;;;;;15.14;50.51;99736.55;67904;1276;1016645;-67
2023/10/01 00:20:36;;;;;;;23.90;6.60;;;;;;;15.14;50.66;99735.47;67847;1276;1016431;-66
2023/10/01 00:23:38;;;;;;;22.80;6.90;;;;;;;15.30;50.50;99736.39;67862;1276;1016725;-66
2023/10/01 00:26:41;;;;;;;24.30;6.10;;;;;;;15.26;50.41;99734.90;67874;1276;1016355;-65
2023/10/01 00:29:44;;;;;;;24.10;7.10;;;;;;;15.17;50.21;99736.70;67843;1276;1016478;-65
2023/10/01 00:32:47;;;;;;;21.10;6.30;;;;;;;15.05;50.20;99733.95;67886;1276;1016624;-64
2023/10/01 00:35:49;;;;;;;22.90;6.30;;;;;;;15.00;50.42;99732.56;67888;1276;1015789;-65
2023/10/01 00:38:52;;;;;;;24.00;6.70;;;;;;;15.01;50.42;99733.69;67928;1276;1016301;-64
2023/10/01 00:41:54;;;;;;;23.80;5.90;;;;;;;15.00;50.30;99729.73;67933;1276;1016471;-64
2023/10/01 00:44:57;;;;;;;22.30;6.10;;;;;;;14.97;50.21;99725.66;67912;1276;1016673;-68
2023/10/01 00:48:02;;;;;;;23.80;6.80;;;;;;;14.90;50.86;99723.13;67922;1276;1017161;-70
2023/10/01 00:51:05;;;;;;;24.10;6.20;;;;;;;14.92;51.05;99724.06;67920;1276;1018612;-66
2023/10/01 00:54:10;;;;;;;24.50;6.40;;;;;;;14.95;50.94;99722.10;67859;1276;1016340;-67
2023/10/01 00:57:14;;;;;;;19.70;5.80;;;;;;;15.01;50.87;99715.38;67934;1276;1016379;-64
2023/10/01 01:00:16;;;;;;;21.70;6.50;;;;;;;14.91;50.54;99715.27;67928;1276;1016244;-64
2023/10/01 01:03:21;;;;;;;23.40;5.50;;;;;;;14.84;50.94;99713.98;67930;1276;1016761;-63
2023/10/01 01:06:24;;;;;;;19.00;5.20;;;;;;;14.85;50.88;99711.84;67925;1276;1016430;-66
2023/10/01 01:09:28;;;;;;;19.90;5.70;;;;;;;14.85;50.65;99705.17;67938;1276;1016086;-64
2023/10/01 01:12:32;;;;;;;21.00;5.50;;;;;;;14.82;50.63;99704.65;67885;1276;1016440;-63
2023/10/01 01:15:34;;;;;;;20.90;7.30;;;;;;;14.74;50.48;99707.63;67882;1276;1016475;-67
2023/10/01 01:18:36;;;;;;;20.30;6.60;;;;;;;14.72;50.50;99707.20;67917;1276;1016373;-67
2023/10/01 01:21:42;;;;;;;;;;;;;;;14.67;50.30;99712.06;67927;1276;1016449;-65
2023/10/01 01:24:47;;;;;;;16.10;4.40;;;;;;;14.53;50.20;99714.16;67895;1276;1016149;-67
2023/10/01 01:27:50;;;;;;;16.30;4.40;;;;;;;14.43;50.26;99711.49;67918;1276;1018237;-67
2023/10/01 01:30:53;;;;;;;23.20;6.50;;;;;;;14.34;50.42;99715.02;67938;1276;1016451;-68
2023/10/01 01:33:56;;;;;;;19.50;6.50;;;;;;;14.59;49.88;99715.38;67906;1276;1016319;-64
2023/10/01 01:36:58;;;;;;;18.50;5.10;;;;;;;14.35;50.72;99715.13;67893;1276;1016185;-64
2023/10/01 01:40:08;;;;;;;22.50;5.70;;;;;;;14.37;50.96;99715.85;67901;1276;1016494;-69
2023/10/01 01:43:21;;;;;;;22.60;5.90;;;;;;;14.38;50.94;99714.58;67938;1276;1016718;-65
2023/10/01 01:46:23;;;;;;;20.70;4.90;;;;;;;14.29;50.75;99712.52;67937;1276;1016232;-67
2023/10/01 01:49:26;;;;;;;22.00;5.80;;;;;;;14.19;50.61;99707.66;67889;1276;1016108;-66
2023/10/01 01:52:29;;;;;;;22.40;6.20;;;;;;;14.14;50.91;99706.75;67877;1276;1016404;-65
2023/10/01 01:55:34;;;;;;;19.70;5.60;;;;;;;14.16;51.34;99701.16;67921;1276;1016387;-70
2023/10/01 01:58:37;;;;;;;24.50;6.40;;;;;;;14.19;51.14;99703.63;67845;1276;1016498;-69
2023/10/01 02:01:39;;;;;;;20.60;5.50;;;;;;;14.35;50.72;99699.10;67914;1276;1016449;-69
2023/10/01 02:04:58;;;;;;;23.00;6.50;;;;;;;14.31;51.00;99697.77;67901;1276;1017982;-69
2023/10/01 02:08:06;;;;;;;22.50;5.70;;;;;;;14.28;51.13;99701.31;67922;1276;1016443;-66
2023/10/01 02:11:09;;;;;;;20.60;5.30;;;;;;;14.22;51.25;99700.64;67903;1276;1016443;-68
2023/10/01 02:14:29;;;;;;;21.40;6.00;;;;;;;14.19;51.20;99697.13;67934;1276;1018058;-66
2023/10/01 02:17:32;;;;;;;22.20;5.40;;;;;;;14.17;51.08;99689.64;67902;1276;1016099;-67
2023/10/01 02:20:35;;;;;;;20.20;5.70;;;;;;;14.16;51.07;99687.99;67904;1276;1016814;-67
2023/10/01 02:23:37;;;;;;;21.90;6.20;;;;;;;14.16;51.34;99692.36;67892;1276;1016473;-65
2023/10/01 02:26:40;;;;;;;19.90;5.80;;;;;;;14.20;51.44;99686.31;67895;1276;1016575;-65
2023/10/01 02:33:18;;;;;;;20.90;6.00;;;;;;;14.25;51.07;99686.77;67875;1276;1016272;-69
2023/10/01 02:36:22;;;;;;;20.90;5.60;;;;;;;14.21;51.10;99688.59;67875;1276;1016411;-67
2023/10/01 02:39:28;;;;;;;19.70;5.90;;;;;;;14.27;51.26;99693.98;67868;1276;1016440;-68
2023/10/01 02:42:32;;;;;;;22.40;5.70;;;;;;;14.30;51.20;99689.08;67872;1276;1016406;-71
2023/10/01 02:45:38;;;;;;;21.80;5.40;;;;;;;14.30;51.23;99684.62;67871;1276;1016402;-68
2023/10/01 02:48:41;;;;;;;23.00;5.70;;;;;;;14.31;51.26;99691.95;67881;1276;1016472;-64
2023/10/01 02:51:43;;;;;;;;;;;;;;;14.27;51.24;99697.35;67928;1276;1015725;-68
2023/10/01 02:54:47;;;;;;;18.10;4.80;;;;;;;14.32;51.28;99701.25;67931;1276;1016981;-67
2023/10/01 02:57:50;;;;;;;20.50;5.30;;;;;;;14.44;51.25;99691.38;67937;1276;1017196;-65
2023/10/01 03:00:53;;;;;;;20.40;5.90;;;;;;;14.48;51.41;99687.96;67876;1276;1016432;-66
2023/10/01 03:03:55;;;;;;;21.10;5.60;;;;;;;14.54;51.29;99687.20;67941;1276;1016501;-66
2023/10/01 03:07:04;;;;;;;19.80;5.00;;;;;;;14.57;51.30;99685.96;67922;1276;1016535;-65
2023/10/01 03:10:12;;;;;;;22.10;6.30;;;;;;;14.62;51.61;99695.66;67883;1276;1016921;-65
2023/10/01 03:13:17;;;;;;;23.10;5.60;;;;;;;14.63;51.44;99698.40;67922;1276;1016349;-66
2023/10/01 03:19:52;;;;;;;19.00;5.40;;;;;;;14.53;51.50;99691.48;67838;1276;1017089;-65
2023/10/01 03:22:56;;;;;;;19.40;5.10;;;;;;;14.49;51.29;99692.27;67936;1276;1016224;-67
2023/10/01 03:26:00;;;;;;;18.40;5.30;;;;;;;14.50;51.51;99687.40;67914;1276;1016022;-63
2023/10/01 03:29:17;;;;;;;20.10;6.10;;;;;;;14.63;51.84;99682.63;67920;1276;1016997;-66
2023/10/01 03:32:29;;;;;;;23.20;5.90;;;;;;;14.79;51.82;99662.58;67877;1276;1018068;-66
2023/10/01 03:35:31;;;;;;;19.30;5.30;;;;;;;14.91;51.79;99665.66;67935;1276;1019080;-64
2023/10/01 03:38:35;;;;;;;;;;;;;;;15.00;51.61;99668.77;67882;1276;1016339;-68
2023/10/01 03:45:19;;;;;;;20.90;5.60;;;;;;;15.20;51.73;99669.35;67907;1276;1016437;-67
2023/10/01 03:48:21;;;;;;;19.10;4.90;;;;;;;15.46;51.60;99685.23;67945;1276;1016470;-67
2023/10/01 03:51:31;;;;;;;21.00;5.70;;;;;;;15.76;51.30;99689.06;67897;1276;1016417;-68
2023/10/01 03:57:54;;;;;;;18.60;5.10;;;;;;;15.54;50.71;99692.17;67912;1276;1016198;-68
2023/10/01 04:01:14;;;;;;;21.90;5.50;;;;;;;15.46;50.76;99688.08;67917;1276;1016379;-67
2023/10/01 04:04:19;;;;;;;21.20;6.20;;;;;;;15.35;51.22;99684.10;67925;1276;1016428;-65
2023/10/01 04:07:22;;;;;;;21.50;6.40;;;;;;;15.18;51.93;99683.27;67921;1276;1017123;-67
2023/10/01 04:10:30;;;;;;;23.10;6.00;;;;;;;15.20;51.97;99683.98;67895;1276;1016262;-68
2023/10/01 04:13:34;;;;;;;22.30;5.90;;;;;;;15.21;52.21;99687.61;67883;1276;1016340;-68
2023/10/01 04:16:42;;;;;;;18.80;5.40;;;;;;;15.27;52.25;99677.73;67939;1276;1016471;-64
2023/10/01 04:19:48;;;;;;;21.00;5.40;;;;;;;15.27;52.39;99686.00;67893;1276;1016330;-70
2023/10/01 04:23:04;;;;;;;19.40;5.60;;;;;;;15.33;52.46;99687.23;67902;1276;1015690;-68
2023/10/01 04:26:06;;;;;;;19.20;5.10;;;;;;;15.39;52.44;99682.17;67901;1276;1016352;-71
2023/10/01 04:29:09;;;;;;;19.90;5.10;;;;;;;15.50;52.17;99683.92;67900;1276;1016462;-71
2023/10/01 04:32:12;;;;;;;21.80;5.10;;;;;;;15.78;51.70;99685.58;67882;1276;1016255;-64
2023/10/01 04:35:15;;;;;;;22.30;5.20;;;;;;;15.79;51.53;99686.23;67927;1276;1018719;-69
2023/10/01 04:38:19;;;;;;;22.20;5.70;;;;;;;15.84;51.61;99692.62;67942;1276;1018858;-70
2023/10/01 04:41:22;;;;;;;19.40;5.40;;;;;;;15.73;51.98;99697.21;67912;1276;1016508;-68
2023/10/01 04:44:25;;;;;;;18.80;5.30;;;;;;;15.65;52.50;99703.05;67935;1276;1018342;-65
2023/10/01 04:47:31;;;;;;;20.60;5.60;;;;;;;15.70;52.36;99699.70;67875;1276;1016397;-63
2023/10/01 04:50:34;;;;;;;19.90;5.20;;;;;;;15.72;52.37;99695.88;67937;1276;1017088;-65
2023/10/01 04:53:39;;;;;;;20.50;5.10;;;;;;;15.77;52.38;99686.68;67902;1276;1016414;-63
2023/10/01 04:56:41;;;;;;;21.70;5.80;;;;;;;15.84;52.35;99685.23;67878;1276;1016438;-67
2023/10/01 04:59:56;;;;;;;21.40;6.20;;;;;;;15.83;52.41;99679.23;67869;1276;1016450;-64
2023/10/01 05:02:58;;;;;;;20.70;5.70;;;;;;;15.91;52.40;99675.38;67918;1276;1016491;-65
2023/10/01 05:06:02;;;;;;;21.20;5.90;;;;;;;15.99;52.26;99680.13;67868;1276;1016448;-65
2023/10/01 05:09:07;;;;;;;21.30;5.80;;;;;;;16.00;52.43;99673.32;67922;1276;1017969;-68
2023/10/01 05:12:11;;;;;;;20.60;5.40;;;;;;;16.14;52.22;99673.21;67886;1276;1016295;-66
2023/10/01 05:15:21;;;;;;;20.10;5.60;;;;;;;16.25;52.22;99674.02;67892;1276;1016637;-65
2023/10/01 05:18:26;;;;;;;19.60;5.90;;;;;;;16.44;52.07;99678.89;67879;1276;1016407;-65
2023/10/01 05:21:28;;;;;;;20.90;5.40;;;;;;;16.53;51.91;99684.79;67956;1276;1016200;-64
2023/10/01 05:24:35;;;;;;;19.50;5.10;;;;;;;16.54;51.87;99689.80;67887;1276;1016417;-64
2023/10/01 05:27:38;;;;;;;19.20;5.40;;;;;;;16.44;52.00;99688.71;67870;1276;1016126;-65
2023/10/01 05:30:42;;;;;;;20.20;5.30;;;;;;;16.58;52.24;99691.85;67890;1276;1016067;-68
2023/10/01 05:33:46;;;;;;;20.60;5.20;;;;;;;16.74;52.05;99692.62;67923;1276;1016421;-66
2023/10/01 05:36:52;;;;;;;19.30;5.70;;;;;;;16.80;52.07;99704.19;67914;1276;1016404;-65
2023/10/01 05:39:57;;;;;;;22.40;5.50;;;;;;;16.88;51.96;99707.34;67933;1276;1016520;-65
2023/10/01 05:43:12;;;;;;;20.30;5.80;;;;;;;16.94;51.98;99708.48;67927;1276;1018658;-67
2023/10/01 05:46:14;;;;;;;20.60;5.80;;;;;;;16.83;52.25;99706.59;67897;1276;1016111;-64
2023/10/01 05:49:18;;;;;;;23.80;6.10;;;;;;;16.83;52.13;99709.58;67928;1276;1016361;-63
2023/10/01 05:52:21;;;;;;;17.20;4.70;;;;;;;16.85;52.57;99711.07;67912;1276;1016487;-66
2023/10/01 05:55:24;;;;;;;22.70;6.10;;;;;;;16.97;52.62;99718.01;67869;1276;1016466;-68
2023/10/01 05:58:26;;;;;;;22.20;7.00;;;;;;;17.08;52.65;99708.39;67902;1276;1016468;-67
2023/10/01 06:01:28;;;;;;;22.80;6.00;;;;;;;17.15;52.83;99708.52;67914;1276;1018923;-65
2023/10/01 06:04:31;;;;;;;18.90;5.60;;;;;;;17.29;52.91;99709.63;67926;1276;1016468;-66
2023/10/01 06:07:34;;;;;;;22.30;6.60;;;;;;;17.48;53.15;99707.17;67874;1276;1016476;-69
2023/10/01 06:10:36;;;;;;;24.00;6.60;;;;;;;17.65;53.28;99717.52;67882;1276;1016391;-65
2023/10/01 06:13:39;;;;;;;29.60;6.90;;;;;;;17.70;53.35;99723.33;67881;1276;1016249;-66
2023/10/01 06:16:41;;;;;;;29.10;6.60;;;;;;;17.70;53.54;99718.92;67942;1276;1016499;-69
2023/10/01 06:19:44;;;;;;;;;;;;;;;17.74;53.64;99714.76;67908;1276;1016010;-63
2023/10/01 06:22:47;;;;;;;25.80;7.30;;;;;;;17.94;53.61;99712.86;67848;1276;1016393;-68
2023/10/01 06:25:53;;;;;;;26.10;7.20;;;;;;;18.05;53.67;99706.00;67902;1276;1015950;-64
2023/10/01 06:28:56;;;;;;;23.00;6.40;;;;;;;18.36;53.13;99705.20;67862;1276;1017139;-64
2023/10/01 06:32:01;;;;;;;28.30;6.90;;;;;;;18.40;53.07;99711.55;67899;1276;1016580;-64
2023/10/01 06:35:03;;;;;;;26.60;6.30;;;;;;;18.26;53.41;99712.35;67917;1276;1016519;-65
2023/10/01 06:38:06;;;;;;;;;;;;;;;18.39;53.31;99714.17;67897;1276;1016462;-64
2023/10/01 06:41:13;;;;;;;21.30;5.60;;;;;;;18.31;53.28;99708.77;67869;1276;1015975;-64
2023/10/01 06:44:15;;;;;;;23.20;5.40;;;;;;;18.34;53.39;99713.50;67928;1276;1016288;-65
2023/10/01 06:47:18;;;;;;;23.60;5.30;;;;;;;18.34;53.26;99719.16;67894;1276;1016324;-69
2023/10/01 06:50:24;;;;;;;23.50;5.30;;;;;;;18.54;52.80;99716.15;67867;1276;1016140;-68
2023/10/01 06:53:43;;;;;;;22.40;5.50;;;;;;;18.49;52.79;99720.28;67858;1276;1016700;-69
2023/10/01 06:56:47;;;;;;;21.70;5.10;;;;;;;18.44;53.16;99721.31;67904;1264;1016140;-69
2023/10/01 06:59:49;;;;;;;26.20;5.90;;;;;;;18.50;53.18;99716.63;67920;1276;1016610;-64
2023/10/01 07:02:51;;;;;;;20.10;5.40;;;;;;;18.59;52.86;99714.31;67918;1276;1016422;-65
2023/10/01 07:05:56;;;;;;;23.80;6.50;;;;;;;18.75;52.77;99712.52;67901;1276;1016417;-63
2023/10/01 07:09:00;;;;;;;20.30;5.30;;;;;;;18.97;52.58;99713.23;67890;1276;1016442;-69
2023/10/01 07:12:03;;;;;;;23.60;5.40;;;;;;;19.13;52.17;99712.48;67872;1276;1018460;-67
2023/10/01 07:15:06;;;;;;;21.90;4.80;;;;;;;19.27;52.13;99709.02;67862;1276;1016195;-69
2023/10/01 07:18:15;;;;;;;25.20;5.20;;;;;;;19.32;51.87;99709.67;67882;1276;1017652;-65
2023/10/01 07:21:19;;;;;;;21.90;5.40;;;;;;;19.30;51.81;99705.60;67915;1276;1019353;-64
2023/10/01 07:24:23;;;;;;;21.90;4.90;;;;;;;19.22;52.08;99709.73;67900;1276;1016440;-69
2023/10/01 07:27:26;;;;;;;21.90;5.00;;;;;;;19.26;51.99;99708.06;67912;1276;1016261;-66
2023/10/01 07:30:45;;;;;;;19.30;4.80;;;;;;;19.34;52.03;99708.07;67899;1276;1018488;-65
2023/10/01 07:33:47;;;;;;;22.60;5.60;;;;;;;19.50;51.82;99709.38;67848;1276;1016867;-68
2023/10/01 07:36:50;;;;;;;21.90;5.50;;;;;;;19.57;51.76;99707.00;67899;1276;1016029;-66
2023/10/01 07:39:55;;;;;;;21.40;5.20;;;;;;;19.70;51.94;99703.79;67890;1276;1018848;-65
2023/10/01 07:42:57;;;;;;;26.90;5.80;;;;;;;19.88;51.69;99696.27;67877;1276;1016469;-64
2023/10/01 07:46:02;;;;;;;24.50;5.40;;;;;;;19.92;51.17;99707.60;67909;1276;1015950;-63
2023/10/01 07:49:04;;;;;;;25.50;5.80;;;;;;;19.78;51.37;99712.23;67898;1276;1019783;-65
2023/10/01 07:52:06;;;;;;;22.60;5.70;;;;;;;19.79;51.50;99709.31;67891;1276;1016807;-66
2023/10/01 07:58:37;;;;;;;22.20;5.20;;;;;;;19.88;51.78;99708.46;67901;1276;1016275;-69
2023/10/01 08:01:42;;;;;;;24.60;6.00;;;;;;;19.93;51.22;99706.89;67917;1276;1016844;-63
2023/10/01 08:05:00;;;;;;;24.80;6.30;;;;;;;19.91;51.31;99712.83;67861;1276;1018119;-67
2023/10/01 08:08:03;;;;;;;22.00;5.60;;;;;;;20.06;51.07;99710.18;67901;1276;1019511;-67
2023/10/01 08:11:37;;;;;;;;;;;;;;;20.08;51.41;99715.86;67848;1276;1016357;-68
2023/10/01 08:14:33;;;;;;;25.10;6.00;;;;;;;20.32;51.24;99718.77;67900;1276;1016515;-66
2023/10/01 08:17:35;;;;;;;23.20;6.40;;;;;;;20.45;50.91;99714.74;67857;1276;1017625;-66
2023/10/01 08:20:44;;;;;;;23.80;6.00;;;;;;;20.44;50.64;99718.58;67889;1276;1016838;-67
2023/10/01 08:23:48;;;;;;;20.00;5.30;;;;;;;20.27;50.47;99723.62;67863;1276;1017583;-66
2023/10/01 08:27:01;;;;;;;22.10;4.80;;;;;;;20.18;50.68;99722.08;67897;1276;1016512;-66
2023/10/01 08:30:19;;;;;;;22.60;5.10;;;;;;;20.19;50.59;99722.89;67911;1276;1016205;-65
2023/10/01 08:33:22;;;;;;;22.30;5.00;;;;;;;20.14;50.84;99726.83;67920;1276;1016366;-63
2023/10/01 08:36:25;;;;;;;20.90;5.30;;;;;;;20.12;50.95;99727.60;67854;1276;1016203;-69
2023/10/01 08:39:47;;;;;;;23.80;5.00;;;;;;;20.08;50.93;99720.65;67889;1276;1016042;-63
2023/10/01 08:42:52;;;;;;;22.70;5.40;;;;;;;20.06;51.04;99718.48;67895;1276;1016290;-65
2023/10/01 08:45:54;;;;;;;23.50;5.20;;;;;;;20.12;51.13;99723.48;67889;1276;1016441;-65
2023/10/01 08:49:18;;;;;;;;;;;;;;;20.09;51.48;99729.63;67850;1276;1016346;-65
2023/10/01 08:52:19;;;;;;;20.00;5.00;;;;;;;20.06;51.95;99731.61;67834;1276;1018708;-66
2023/10/01 08:55:21;;;;;;;24.30;5.70;;;;;;;20.19;51.53;99724.83;67917;1276;1016441;-64
2023/10/01 08:58:26;;;;;;;21.30;5.00;;;;;;;20.35;51.42;99718.80;67896;1276;1016883;-67
2023/10/01 09:01:28;;;;;;;24.10;5.80;;;;;;;20.53;51.34;99715.98;67885;1276;1018603;-65
2023/10/01 09:04:44;;;;;;;20.10;5.20;;;;;;;20.75;51.19;99711.95;67858;1276;1016394;-65
2023/10/01 09:07:50;;;;;;;24.00;5.10;;;;;;;20.82;51.04;99710.65;67871;1276;1016429;-67
2023/10/01 09:10:53;;;;;;;24.00;5.20;;;;;;;21.00;51.17;99705.98;67745;1276;1148207;-64
2023/10/01 09:14:14;;;;;;;22.40;5.20;;;;;;;21.15;50.40;99698.98;67906;1276;1016346;-67
2023/10/01 09:17:24;;;;;;;22.30;5.30;;;;;;;21.28;50.52;99695.66;67876;1276;1017223;-66
2023/10/01 09:20:26;;;;;;;23.20;5.50;;;;;;;21.51;50.43;99693.21;67866;1276;1016402;-65
2023/10/01 09:23:54;;;;;;;21.00;5.70;;;;;;;21.48;49.87;99684.38;67847;1276;1016559;-65
2023/10/01 09:26:56;;;;;;;24.20;6.40;;;;;;;21.55;49.94;99686.91;67856;1276;1016254;-64
2023/10/01 09:29:58;;;;;;;24.00;6.50;;;;;;;21.51;50.13;99685.16;67852;1276;1016578;-68
2023/10/01 09:33:04;;;;;;;23.80;5.70;;;;;;;21.59;49.70;99686.91;67866;1276;1016128;-66
2023/10/01 09:36:08;;;;;;;22.60;5.50;;;;;;;21.59;49.72;99685.31;67857;1276;1016378;-64
2023/10/01 09:39:10;;;;;;;22.40;5.30;;;;;;;21.73;49.87;99690.39;67879;1276;1017387;-65
2023/10/01 09:42:25;;;;;;;;;;;;;;;22.20;49.07;99686.40;67890;1276;1016408;-64
2023/10/01 09:45:28;;;;;;;20.10;5.30;;;;;;;22.46;48.47;99690.46;67911;1276;1016400;-67
2023/10/01 09:48:30;;;;;;;21.50;5.40;;;;;;;22.37;47.94;99687.61;67874;1276;1016398;-69
2023/10/01 09:51:34;;;;;;;;;;;;;;;22.43;48.25;99685.77;67910;1276;1016487;-66
2023/10/01 09:54:41;;;;;;;22.50;4.70;;;;;;;22.48;47.95;99683.11;67898;1276;1016283;-65
2023/10/01 09:57:44;;;;;;;21.20;4.60;;;;;;;22.64;47.90;99682.84;67876;1276;1016294;-65
2023/10/01 10:00:46;;;;;;;19.90;4.90;;;;;;;22.81;47.64;99681.19;67867;1276;1016465;-64
2023/10/01 10:03:49;;;;;;;19.90;4.40;;;;;;;22.91;47.27;99676.95;67911;1276;1015930;-67
2023/10/01 10:06:59;;;;;;;20.70;4.80;;;;;;;22.90;47.00;99682.27;67869;1276;1016497;-64
2023/10/01 10:10:02;;;;;;;19.00;4.50;;;;;;;23.07;46.89;99677.73;67862;1276;1016253;-63
2023/10/01 10:13:04;;;;;;;24.10;5.20;;;;;;;23.03;46.55;99677.77;67845;1276;1016406;-65
2023/10/01 10:19:47;;;;;;;21.90;4.90;;;;;;;23.03;47.01;99674.91;67755;1276;1016569;-64
2023/10/01 10:22:50;;;;;;;25.20;4.70;;;;;;;23.16;47.09;99673.42;67885;1276;1016340;-64
2023/10/01 10:25:56;;;;;;;19.50;3.80;;;;;;;23.13;46.02;99677.67;67875;1276;1016316;-64
2023/10/01 10:28:58;;;;;;;16.90;3.80;;;;;;;23.24;45.91;99671.04;67842;1276;1016444;-62
2023/10/01 10:32:00;;;;;;;18.00;4.10;;;;;;;23.41;45.50;99674.04;67847;1276;1016289;-62
2023/10/01 10:35:03;;;;;;;17.50;3.90;;;;;;;23.41;44.97;99677.57;67935;1276;1016982;-64
2023/10/01 10:38:09;;;;;;;19.90;3.90;;;;;;;23.54;45.27;99673.74;67897;1276;1016053;-62
2023/10/01 10:41:12;;;;;;;20.10;4.00;;;;;;;23.92;45.67;99675.92;67894;1276;1016417;-61
2023/10/01 10:44:15;;;;;;;;;;;;;;;24.14;44.32;99673.71;67875;1276;1016343;-66
2023/10/01 10:47:18;;;;;;;18.40;3.50;;;;;;;24.07;44.18;99679.08;67866;1276;1016852;-62
2023/10/01 10:50:21;;;;;;;21.40;4.20;;;;;;;23.74;43.87;99678.46;67844;1276;1015888;-61
2023/10/01 10:53:24;;;;;;;18.90;3.80;;;;;;;23.50;44.07;99681.27;67911;1276;1016392;-64
2023/10/01 10:56:35;;;;;;;;;;;;;;;23.64;43.93;99680.03;67912;1276;1016704;-62
2023/10/01 10:59:37;;;;;;;20.50;3.80;;;;;;;23.72;43.59;99677.48;67856;1276;1016483;-62
2023/10/01 11:02:43;;;;;;;20.20;3.80;;;;;;;23.75;43.21;99681.91;67888;1276;1016457;-63
2023/10/01 11:05:51;;;;;;;18.20;3.70;;;;;;;23.83;43.39;99687.55;67847;1276;1016375;-67
2023/10/01 11:08:53;;;;;;;17.30;3.30;;;;;;;23.97;43.43;99686.48;67874;1276;1016286;-63
2023/10/01 11:11:56;;;;;;;19.60;3.50;;;;;;;24.14;43.34;99681.91;67886;1276;1016163;-65
2023/10/01 11:15:19;;;;;;;;;;;;;;;24.26;43.55;99677.04;67877;1276;1017125;-61
2023/10/01 11:18:25;;;;;;;19.70;3.60;;;;;;;24.28;42.32;99677.25;67876;1276;1016410;-63
2023/10/01 11:21:31;;;;;;;18.20;3.50;;;;;;;24.13;42.72;99673.37;67906;1276;1017877;-64
2023/10/01 11:24:34;;;;;;;17.20;3.30;;;;;;;24.16;42.68;99672.07;67878;1276;1015977;-62
2023/10/01 11:27:44;;;;;;;;;;;;;;;24.25;42.25;99671.68;67908;1276;1017010;-65
2023/10/01 11:30:47;;;;;;;16.30;3.60;;;;;;;24.42;42.18;99665.05;67877;1276;1016526;-63
2023/10/01 11:33:49;;;;;;;21.00;3.90;;;;;;;24.47;41.68;99662.23;67837;1276;1016098;-65
2023/10/01 11:36:56;;;;;;;;;;;;;;;24.56;41.58;99663.04;67857;1276;1016299;-65
2023/10/01 11:39:59;;;;;;;18.00;3.80;;;;;;;24.69;42.39;99664.90;67840;1276;1016487;-65
2023/10/01 11:43:05;;;;;;;;;;;;;;;24.90;42.03;99665.88;67838;1276;1017963;-66
2023/10/01 11:46:18;;;;;;;20.70;3.80;;;;;;;24.70;41.03;99661.44;67880;1276;1016462;-64
2023/10/01 11:49:32;;;;;;;21.00;3.60;;;;;;;24.62;41.51;99664.70;67865;1276;1016368;-65
2023/10/01 11:52:35;;;;;;;15.00;3.20;;;;;;;24.55;41.40;99659.51;67898;1276;1016227;-66
2023/10/01 11:55:37;;;;;;;18.30;3.30;;;;;;;24.74;41.71;99657.52;67826;1276;1017408;-66
2023/10/01 11:58:40;;;;;;;;;;;;;;;24.98;41.01;99650.73;67885;1276;1016401;-64
2023/10/01 12:01:48;;;;;;;18.00;3.20;;;;;;;25.29;40.90;99650.39;67889;1276;1016505;-67
2023/10/01 12:04:56;;;;;;;16.40;3.10;;;;;;;25.40;40.47;99651.67;67896;1276;1016438;-67
2023/10/01 12:07:59;;;;;;;16.50;3.40;;;;;;;25.64;40.86;99647.57;67881;1276;1016350;-65
2023/10/01 12:11:26;;;;;;;;;;;;;;;25.82;40.28;99643.97;67853;1276;1016482;-66
2023/10/01 12:14:25;;;;;;;;;;;;;;;26.00;39.89;99643.42;67890;1276;1016981;-64
2023/10/01 12:17:27;;;;;;;14.30;2.80;;;;;;;26.08;39.20;99638.27;67863;1276;1016384;-66
2023/10/01 12:20:30;;;;;;;;;;;;;;;25.82;38.75;99640.77;67847;1276;1015998;-64
2023/10/01 12:23:33;;;;;;;11.00;2.70;;;;;;;25.51;38.86;99641.14;67855;1276;1016490;-67
2023/10/01 12:26:36;;;;;;;12.80;2.50;;;;;;;25.46;39.49;99638.48;67846;1276;1016441;-68
2023/10/01 12:29:48;;;;;;;16.00;3.20;;;;;;;25.65;39.55;99636.77;67903;1276;1016328;-67
2023/10/01 12:32:52;;;;;;;13.70;2.80;;;;;;;25.48;38.20;99640.17;67877;1276;1016260;-64
2023/10/01 12:35:54;;;;;;;20.10;2.70;;;;;;;25.15;38.14;99641.20;67894;1276;1016316;-64
2023/10/01 12:39:16;;;;;;;;;;;;;;;24.84;38.90;99645.38;67890;1276;1016335;-66
2023/10/01 12:42:26;;;;;;;14.50;2.70;;;;;;;25.04;39.30;99642.16;67834;1276;1016440;-66
2023/10/01 12:45:28;;;;;;;16.20;2.90;;;;;;;25.30;38.69;99638.31;67912;1276;1016262;-67
2023/10/01 12:48:31;;;;;;;16.70;3.00;;;;;;;25.57;38.55;99631.06;67887;1276;1016648;-67
2023/10/01 12:51:38;;;;;;;;;;;;;;;25.96;37.93;99627.52;67852;1276;1016317;-67
2023/10/01 12:54:41;;;;;;;15.30;2.80;;;;;;;26.12;36.73;99630.04;67894;1276;1016761;-67
2023/10/01 12:57:46;;;;;;;15.50;3.10;;;;;;;26.10;36.35;99618.33;67863;1276;1016434;-66
2023/10/01 13:00:50;;;;;;;14.60;2.70;;;;;;;26.23;36.70;99616.86;67877;1276;1016441;-66
2023/10/01 13:03:52;;;;;;;17.70;3.20;;;;;;;26.39;36.96;99610.02;67886;1276;1016470;-67
2023/10/01 13:07:01;;;;;;;12.90;2.90;;;;;;;26.63;35.94;99607.12;67885;1276;1016683;-65
2023/10/01 13:10:06;;;;;;;15.40;2.70;;;;;;;26.22;35.47;99602.52;67894;1276;1016421;-66
2023/10/01 13:13:09;;;;;;;15.80;2.60;;;;;;;25.81;35.99;99603.41;67894;1276;1016398;-63
2023/10/01 13:16:16;;;;;;;14.90;3.00;;;;;;;25.50;36.41;99602.49;67855;1276;1016375;-63
2023/10/01 13:19:23;;;;;;;13.40;2.80;;;;;;;25.00;36.94;99604.33;67923;1276;1019578;-67
2023/10/01 13:22:25;;;;;;;12.40;2.60;;;;;;;24.95;37.93;99599.90;67839;1276;1017139;-66
2023/10/01 13:25:28;;;;;;;;;;;;;;;25.32;37.71;99586.38;67852;1276;1016494;-67
2023/10/01 13:28:43;;;;;;;12.90;2.50;;;;;;;25.78;36.45;99585.30;67887;1253;1019255;-65
2023/10/01 13:31:51;;;;;;;9.20;2.30;;;;;;;25.52;35.61;99582.73;67856;1276;1016961;-64
2023/10/01 13:34:58;;;;;;;26.40;2.80;;;;;;;25.57;36.56;99573.73;67852;1276;1016400;-63
2023/10/01 14:11:26;;;;;;;14.90;2.70;;;;;;;25.54;37.99;99583.20;67829;1276;1016888;-67
2023/10/01 14:14:33;;;;;;;16.60;3.70;;;;;;;25.48;37.14;99582.59;67842;1276;1016840;-68
2023/10/01 14:17:35;;;;;;;13.40;2.50;;;;;;;25.29;38.00;99580.77;67895;1276;1016375;-67
2023/10/01 14:20:48;;;;;;;16.90;2.90;;;;;;;25.03;37.44;99580.38;67878;1276;1016450;-67
2023/10/01 14:23:50;;;;;;;15.00;2.50;;;;;;;24.86;38.32;99580.12;67862;1276;1019654;-64
2023/10/01 14:26:52;;;;;;;;;;;;;;;24.50;38.58;99578.59;67849;1276;1016293;-65
2023/10/01 14:30:04;;;;;;;13.80;2.70;;;;;;;24.35;39.05;99576.45;67854;1276;1016362;-66
2023/10/01 14:33:23;;;;;;;13.60;2.70;;;;;;;24.28;38.78;99572.71;67855;1276;1016212;-67
2023/10/01 14:36:26;;;;;;;14.80;2.80;;;;;;;24.31;39.15;99572.73;67892;1276;1016925;-65
2023/10/01 14:39:31;;;;;;;10.90;2.80;;;;;;;24.53;38.75;99572.02;67857;1276;1016081;-64
2023/10/01 14:42:36;;;;;;;12.00;2.60;;;;;;;24.61;38.76;99575.14;67858;1276;1016333;-65
2023/10/01 14:45:44;;;;;;;13.90;2.70;;;;;;;24.47;38.83;99576.16;67840;1276;1016501;-64
2023/10/01 14:48:46;;;;;;;16.10;3.40;;;;;;;24.44;38.79;99582.56;67859;1276;1016275;-65
2023/10/01 14:51:53;;;;;;;17.40;3.10;;;;;;;24.52;39.20;99575.87;67831;1276;1016775;-65
2023/10/01 14:55:01;;;;;;;11.60;2.70;;;;;;;24.64;39.32;99566.38;67892;1276;1016386;-67
2023/10/01 14:58:03;;;;;;;17.40;3.30;;;;;;;24.76;38.92;99568.48;67876;1276;1016443;-65
2023/10/01 15:01:08;;;;;;;15.60;3.30;;;;;;;24.71;38.93;99567.98;67890;1276;1016280;-63
2023/10/01 15:04:17;;;;;;;14.80;3.00;;;;;;;24.57;38.87;99559.98;67866;1276;1018606;-65